createdAt,value
2022-12-11T00:01:13.873Z,9.88
2022-12-11T00:03:42.674Z,6.50
2022-12-11T00:06:16.426Z,11.70
2022-12-11T00:08:45.435Z,5.68
2022-12-11T00:11:14.829Z,5.95
2022-12-11T00:13:43.317Z,5.88
2022-12-11T00:16:12.182Z,5.57
2022-12-11T00:18:40.495Z,3.72
2022-12-11T00:21:15.804Z,10.82
2022-12-11T00:23:44.773Z,5.30
2022-12-11T00:26:16.088Z,4.85
2022-12-11T00:28:45.548Z,4.85
2022-12-11T00:31:17.975Z,3.25
2022-12-11T00:33:49.249Z,5.22
2022-12-11T00:36:21.479Z,8.55
2022-12-11T00:38:50.082Z,5.63
2022-12-11T00:41:19.023Z,4.85
2022-12-11T00:43:47.810Z,9.95
2022-12-11T00:46:16.146Z,9.13
2022-12-11T00:48:44.447Z,10.45
2022-12-11T00:51:12.900Z,6.00
2022-12-11T00:53:42.587Z,6.07
2022-12-11T00:56:12.844Z,10.05
2022-12-11T00:58:41.212Z,5.40
2022-12-11T01:01:11.561Z,5.90
2022-12-11T01:03:40.059Z,5.93
2022-12-11T01:06:09.206Z,5.93
2022-12-11T01:08:38.855Z,6.15
2022-12-11T01:11:10.526Z,5.55
2022-12-11T01:13:40.033Z,5.63
2022-12-11T01:16:10.244Z,6.13
2022-12-11T01:18:39.294Z,4.38
2022-12-11T01:21:08.964Z,6.45
2022-12-11T01:23:38.025Z,4.75
2022-12-11T01:26:10.091Z,6.78
2022-12-11T01:28:38.837Z,4.50
2022-12-11T01:31:10.344Z,5.95
2022-12-11T01:33:38.759Z,4.40
2022-12-11T01:36:09.778Z,3.05
2022-12-11T01:38:38.119Z,5.28
2022-12-11T01:41:07.672Z,6.55
2022-12-11T01:43:56.665Z,3.92
2022-12-11T01:46:25.519Z,4.50
2022-12-11T01:48:54.133Z,11.73
2022-12-11T01:51:23.889Z,5.47
2022-12-11T01:53:58.557Z,4.30
2022-12-11T01:56:27.274Z,3.67
2022-12-11T01:59:00.770Z,4.97
2022-12-11T02:01:33.746Z,5.18
2022-12-11T02:04:03.030Z,3.03
2022-12-11T02:06:39.771Z,6.38
2022-12-11T02:09:11.334Z,2.08
2022-12-11T02:11:48.890Z,3.72
2022-12-11T02:14:28.916Z,4.28
2022-12-11T02:17:02.205Z,3.50
2022-12-11T02:19:46.179Z,3.28
2022-12-11T02:22:23.801Z,3.10
2022-12-11T02:25:05.640Z,5.13
2022-12-11T02:27:38.540Z,4.50
2022-12-11T02:30:09.682Z,3.22
2022-12-11T02:32:44.690Z,6.38
2022-12-11T02:35:19.272Z,3.63
2022-12-11T02:37:52.286Z,5.97
2022-12-11T02:40:26.234Z,4.07
2022-12-11T02:42:57.483Z,4.88
2022-12-11T02:45:29.447Z,3.35
2022-12-11T02:48:00.372Z,3.28
2022-12-11T02:50:30.465Z,5.32
2022-12-11T02:52:59.814Z,3.72
2022-12-11T02:55:31.064Z,2.53
2022-12-11T02:58:06.983Z,2.75
2022-12-11T03:00:36.876Z,4.38
2022-12-11T03:03:05.612Z,6.28
2022-12-11T03:05:34.532Z,2.67
2022-12-11T03:08:03.879Z,3.67
2022-12-11T03:10:32.238Z,3.17
2022-12-11T03:13:01.753Z,5.75
2022-12-11T03:15:36.048Z,2.28
2022-12-11T03:18:15.368Z,1.88
2022-12-11T03:20:47.582Z,3.88
2022-12-11T03:23:22.440Z,4.15
2022-12-11T03:25:56.019Z,5.22
2022-12-11T03:28:30.865Z,3.33
2022-12-11T03:31:03.225Z,4.32
2022-12-11T03:33:36.103Z,3.10
2022-12-11T03:36:08.623Z,2.72
2022-12-11T03:38:42.849Z,3.47
2022-12-11T03:41:13.789Z,2.55
2022-12-11T03:43:43.503Z,4.07
2022-12-11T03:46:14.854Z,2.95
2022-12-11T03:48:47.800Z,4.00
2022-12-11T03:51:18.574Z,3.55
2022-12-11T03:53:48.769Z,5.55
2022-12-11T03:56:19.495Z,3.92
2022-12-11T03:58:47.805Z,3.92
2022-12-11T04:01:16.130Z,3.47
2022-12-11T04:03:45.807Z,7.60
2022-12-11T04:06:14.094Z,3.75
2022-12-11T04:08:42.463Z,5.25
2022-12-11T04:11:29.897Z,10.57
2022-12-11T04:14:15.583Z,3.50
2022-12-11T04:16:43.865Z,7.82
2022-12-11T04:19:31.010Z,4.63
2022-12-11T04:22:16.652Z,3.17
2022-12-11T04:24:45.102Z,3.17
2022-12-11T04:27:13.331Z,3.20
2022-12-11T04:29:41.582Z,21.17
2022-12-11T04:32:09.934Z,4.30
2022-12-11T04:34:40.840Z,5.35
2022-12-11T04:37:10.138Z,4.65
2022-12-11T04:39:38.424Z,3.75
2022-12-11T04:42:06.728Z,3.08
2022-12-11T04:44:35.553Z,2.90
2022-12-11T04:47:03.982Z,6.35
2022-12-11T04:49:32.292Z,3.22
2022-12-11T04:52:01.992Z,4.15
2022-12-11T04:54:30.537Z,4.40
2022-12-11T04:56:58.846Z,3.97
2022-12-11T04:59:27.171Z,2.70
2022-12-11T05:01:55.860Z,3.38
2022-12-11T05:04:24.303Z,4.32
2022-12-11T05:06:53.086Z,3.30
2022-12-11T05:09:22.749Z,180.00
2022-12-11T05:11:51.830Z,29.42
2022-12-11T05:14:20.360Z,4.70
2022-12-11T05:16:48.616Z,3.17
2022-12-11T05:19:17.175Z,3.88
2022-12-11T05:21:45.532Z,3.55
2022-12-11T05:24:13.955Z,4.80
2022-12-11T05:26:43.938Z,5.13
2022-12-11T05:29:12.391Z,2.78
2022-12-11T05:31:40.679Z,7.70
2022-12-11T05:34:08.970Z,1.25
2022-12-11T05:36:37.292Z,2.63
2022-12-11T05:39:06.223Z,1.92
2022-12-11T05:41:34.998Z,1.83
2022-12-11T05:44:05.046Z,1.85
2022-12-11T05:46:34.005Z,2.67
2022-12-11T05:49:03.312Z,2.00
2022-12-11T05:51:34.326Z,3.38
2022-12-11T05:54:03.038Z,2.83
2022-12-11T05:56:33.262Z,4.30
2022-12-11T05:59:02.588Z,2.20
2022-12-11T06:01:34.564Z,3.22
2022-12-11T06:04:04.027Z,2.45
2022-12-11T06:06:32.944Z,1.73
2022-12-11T06:09:02.616Z,1.70
2022-12-11T06:11:33.156Z,3.97
2022-12-11T06:14:03.124Z,2.90
2022-12-11T06:16:33.271Z,3.08
2022-12-11T06:19:01.891Z,3.65
2022-12-11T06:21:32.291Z,3.15
2022-12-11T06:24:03.311Z,1.70
2022-12-11T06:26:32.174Z,3.85
2022-12-11T06:29:00.680Z,2.65
2022-12-11T06:31:29.509Z,1.52
2022-12-11T06:33:59.184Z,4.60
2022-12-11T06:36:27.499Z,7.88
2022-12-11T06:38:56.625Z,2.55
2022-12-11T06:41:24.922Z,3.00
2022-12-11T06:43:53.509Z,3.70
2022-12-11T06:46:22.412Z,3.35
2022-12-11T06:48:51.159Z,3.83
2022-12-11T06:51:23.172Z,70.90
2022-12-11T06:53:56.248Z,68.00
2022-12-11T06:56:25.609Z,66.65
2022-12-11T06:58:54.205Z,15.60
2022-12-11T07:01:24.238Z,8.77
2022-12-11T07:03:54.749Z,52.60
2022-12-11T07:06:25.163Z,48.30
2022-12-11T07:08:53.585Z,15.57
2022-12-11T07:11:22.709Z,79.95
2022-12-11T07:13:51.661Z,97.13
2022-12-11T07:16:20.352Z,74.22
2022-12-11T07:18:51.423Z,42.65
2022-12-11T07:21:20.795Z,174.23
2022-12-11T07:23:51.463Z,70.60
2022-12-11T07:26:22.653Z,126.13
2022-12-11T07:28:51.461Z,71.43
2022-12-11T07:31:22.317Z,60.95
2022-12-11T07:33:55.435Z,106.05
2022-12-11T07:36:25.028Z,99.95
2022-12-11T07:38:55.171Z,34.05
2022-12-11T07:41:24.366Z,70.80
2022-12-11T07:43:55.693Z,85.90
2022-12-11T07:46:26.386Z,72.40
2022-12-11T07:48:55.696Z,72.45
2022-12-11T07:51:27.864Z,152.30
2022-12-11T07:53:59.794Z,34.08
2022-12-11T07:56:29.042Z,23.35
2022-12-11T07:59:00.071Z,128.23
2022-12-11T08:01:30.569Z,33.78
2022-12-11T08:03:59.186Z,40.95
2022-12-11T08:06:29.133Z,40.97
2022-12-11T08:09:00.251Z,68.28
2022-12-11T08:11:29.564Z,19.45
2022-12-11T08:13:59.319Z,43.83
2022-12-11T08:16:28.365Z,25.75
2022-12-11T08:18:57.000Z,83.68
2022-12-11T08:21:26.627Z,75.55
2022-12-11T08:23:55.836Z,118.03
2022-12-11T08:26:27.114Z,99.13
2022-12-11T08:28:55.728Z,81.00
2022-12-11T08:31:24.039Z,119.63
2022-12-11T08:33:52.804Z,171.45
2022-12-11T08:36:23.004Z,120.43
2022-12-11T08:38:52.355Z,49.30
2022-12-11T08:41:23.010Z,71.40
2022-12-11T08:43:55.209Z,60.35
2022-12-11T08:46:25.496Z,23.25
2022-12-11T08:48:55.580Z,62.45
2022-12-11T08:51:27.274Z,10.40
2022-12-11T08:53:56.930Z,19.10
2022-12-11T08:56:26.072Z,95.32
2022-12-11T08:58:55.974Z,50.05
2022-12-11T09:01:26.151Z,17.80
2022-12-11T09:03:56.634Z,19.52
2022-12-11T09:06:28.398Z,18.65
2022-12-11T09:08:57.692Z,48.80
2022-12-11T09:11:28.278Z,48.60
2022-12-11T09:14:00.956Z,4.25
2022-12-11T09:16:34.120Z,20.42
2022-12-11T09:19:02.439Z,3.60
2022-12-11T09:21:31.961Z,84.28
2022-12-11T09:24:02.502Z,14.18
2022-12-11T09:26:31.491Z,48.67
2022-12-11T09:29:03.605Z,17.60
2022-12-11T09:31:33.973Z,38.08
2022-12-11T09:34:04.589Z,33.00
2022-12-11T09:36:33.733Z,96.30
2022-12-11T09:39:03.338Z,34.25
2022-12-11T09:41:38.533Z,79.57
2022-12-11T09:44:39.428Z,192.00
2022-12-11T09:47:18.859Z,152.65
2022-12-11T09:49:50.986Z,83.55
2022-12-11T09:52:24.903Z,100.60
2022-12-11T09:54:56.163Z,37.33
2022-12-11T09:57:48.135Z,88.10
2022-12-11T10:00:22.372Z,4.38
2022-12-11T10:03:15.726Z,81.13
2022-12-11T10:05:52.279Z,254.95
2022-12-11T10:08:31.721Z,259.27
2022-12-11T10:11:11.160Z,187.35
2022-12-11T10:13:52.586Z,243.93
2022-12-11T10:16:36.058Z,276.35
2022-12-11T10:19:04.867Z,254.70
2022-12-11T10:21:41.209Z,90.25
2022-12-11T10:24:41.941Z,398.55
2022-12-11T10:27:16.349Z,106.22
2022-12-11T10:29:44.663Z,118.55
2022-12-11T10:32:24.363Z,217.80
2022-12-11T10:35:01.386Z,135.05
2022-12-11T10:37:29.961Z,92.70
2022-12-11T10:39:58.276Z,123.97
2022-12-11T10:42:26.613Z,118.00
2022-12-11T10:45:00.593Z,44.90
2022-12-11T10:47:31.347Z,107.30
2022-12-11T10:50:02.203Z,108.85
2022-12-11T10:52:34.554Z,87.18
2022-12-11T10:55:05.531Z,71.32
2022-12-11T10:57:36.206Z,110.72
2022-12-11T11:00:07.628Z,41.85
2022-12-11T11:02:40.402Z,31.05
2022-12-11T11:05:17.875Z,52.65
2022-12-11T11:07:46.133Z,104.18
2022-12-11T11:10:19.198Z,62.20
2022-12-11T11:12:49.850Z,118.82
2022-12-11T11:15:21.418Z,42.08
2022-12-11T11:17:55.890Z,47.17
2022-12-11T11:20:26.099Z,26.40
2022-12-11T11:22:57.315Z,36.17
2022-12-11T11:25:27.910Z,21.02
2022-12-11T11:27:57.827Z,35.22
2022-12-11T11:30:28.493Z,46.08
2022-12-11T11:33:00.954Z,20.88
2022-12-11T11:35:30.645Z,61.65
2022-12-11T11:38:05.057Z,12.73
2022-12-11T11:40:40.879Z,27.08
2022-12-11T11:43:18.780Z,17.30
2022-12-11T11:45:55.060Z,39.30
2022-12-11T11:48:37.745Z,25.00
2022-12-11T11:53:41.838Z,11.10
2022-12-11T11:56:23.443Z,53.80
2022-12-11T11:59:02.317Z,35.38
2022-12-11T12:01:31.683Z,11.88
2022-12-11T12:04:04.015Z,8.63
2022-12-11T12:06:54.606Z,12.52
2022-12-11T12:09:40.663Z,35.13
2022-12-11T12:12:25.485Z,4.53
2022-12-11T12:15:07.692Z,7.65
2022-12-11T12:17:49.245Z,4.85
2022-12-11T12:20:31.987Z,4.68
2022-12-11T12:23:21.113Z,6.07
2022-12-11T12:25:57.221Z,4.85
2022-12-11T12:28:37.709Z,6.30
2022-12-11T12:31:22.899Z,7.05
2022-12-11T12:33:59.692Z,4.55
2022-12-11T12:36:37.718Z,6.22
2022-12-11T12:39:18.065Z,5.68
2022-12-11T12:41:58.520Z,7.18
2022-12-11T12:44:35.913Z,4.28
2022-12-11T12:47:10.535Z,5.57
2022-12-11T12:49:42.948Z,4.07
2022-12-11T12:52:18.289Z,4.00
2022-12-11T12:55:03.825Z,4.65
2022-12-11T12:57:33.143Z,4.22
2022-12-11T13:00:01.470Z,5.20
2022-12-11T13:02:30.849Z,5.82
2022-12-11T13:05:01.875Z,5.55
2022-12-11T13:07:33.444Z,5.85
2022-12-11T13:10:06.729Z,5.43
2022-12-11T13:12:43.546Z,4.90
2022-12-11T13:15:44.877Z,6.68
2022-12-11T13:18:35.053Z,7.75
2022-12-11T13:21:04.241Z,6.05
2022-12-11T13:23:35.288Z,5.05
2022-12-11T13:26:05.836Z,5.10
2022-12-11T13:28:47.811Z,5.40
2022-12-11T13:31:32.226Z,6.70
2022-12-11T13:34:10.604Z,5.80
2022-12-11T13:36:41.194Z,6.70
2022-12-11T13:39:19.726Z,4.50
2022-12-11T13:41:53.424Z,7.03
2022-12-11T13:44:26.185Z,6.53
2022-12-11T13:46:57.003Z,8.18
2022-12-11T13:49:27.982Z,8.50
2022-12-11T13:51:58.959Z,6.47
2022-12-11T13:54:29.896Z,7.05
2022-12-11T13:57:02.121Z,7.38
2022-12-11T13:59:33.947Z,7.55
2022-12-11T14:02:06.721Z,9.75
2022-12-11T14:04:35.974Z,7.35
2022-12-11T14:07:09.075Z,4.22
2022-12-11T14:09:41.308Z,6.20
2022-12-11T14:12:17.869Z,5.07
2022-12-11T14:14:51.134Z,6.13
2022-12-11T14:17:25.327Z,7.18
2022-12-11T14:19:57.251Z,5.78
2022-12-11T14:22:28.312Z,6.22
2022-12-11T14:25:01.001Z,5.63
2022-12-11T14:27:31.237Z,5.60
2022-12-11T14:29:59.829Z,5.90
2022-12-11T14:32:36.071Z,4.80
2022-12-11T14:35:07.853Z,7.90
2022-12-11T14:37:37.748Z,4.57
2022-12-11T14:40:10.755Z,5.93
2022-12-11T14:42:45.403Z,4.70
2022-12-11T14:45:22.024Z,4.80
2022-12-11T14:47:52.048Z,4.60
2022-12-11T14:50:24.209Z,5.60
2022-12-11T14:52:55.822Z,4.55
2022-12-11T14:55:28.473Z,6.27
2022-12-11T14:58:00.132Z,3.78
2022-12-11T15:00:30.404Z,4.77
2022-12-11T15:03:01.285Z,3.90
2022-12-11T15:05:34.469Z,5.85
2022-12-11T15:08:24.923Z,5.47
2022-12-11T15:11:08.195Z,7.20
2022-12-11T15:13:40.395Z,6.25
2022-12-11T15:16:10.291Z,4.57
2022-12-11T15:18:43.123Z,5.85
2022-12-11T15:21:13.398Z,6.90
2022-12-11T15:23:53.054Z,9.00
2022-12-11T15:26:35.130Z,7.13
2022-12-11T15:29:05.848Z,9.25
2022-12-11T15:31:36.243Z,6.03
2022-12-11T15:34:04.803Z,6.07
2022-12-11T15:36:35.934Z,6.13
2022-12-11T15:39:05.730Z,6.00
2022-12-11T15:41:35.829Z,5.07
2022-12-11T15:44:05.512Z,6.03
2022-12-11T15:46:37.605Z,6.10
2022-12-11T15:49:12.620Z,9.45
2022-12-11T15:51:43.122Z,7.65
2022-12-11T15:54:12.008Z,7.40
2022-12-11T15:56:44.225Z,10.45
2022-12-11T15:59:13.254Z,8.93
2022-12-11T16:01:41.774Z,8.32
2022-12-11T16:04:11.932Z,7.72
2022-12-11T16:06:45.331Z,7.28
2022-12-11T16:09:13.656Z,7.47
2022-12-11T16:11:43.439Z,8.13
2022-12-11T16:14:11.755Z,8.13
2022-12-11T16:16:40.103Z,9.25
2022-12-11T16:19:08.617Z,8.30
2022-12-11T16:21:36.875Z,21.40
2022-12-11T16:24:05.864Z,8.32
2022-12-11T16:26:34.449Z,8.48
2022-12-11T16:29:04.394Z,11.70
2022-12-11T16:31:33.247Z,5.70
2022-12-11T16:34:01.650Z,11.40
2022-12-11T16:36:30.036Z,10.15
2022-12-11T16:38:58.416Z,7.97
2022-12-11T16:41:26.796Z,9.50
2022-12-11T16:43:55.546Z,9.15
2022-12-11T16:46:25.647Z,7.90
2022-12-11T16:48:54.088Z,7.38
2022-12-11T16:51:22.578Z,9.25
2022-12-11T16:53:51.092Z,11.55
2022-12-11T16:56:19.675Z,13.40
2022-12-11T16:58:49.511Z,15.30
2022-12-11T17:01:17.990Z,10.63
2022-12-11T17:03:47.826Z,17.05
2022-12-11T17:06:18.169Z,19.65
2022-12-11T17:08:46.974Z,21.13
2022-12-11T17:11:17.035Z,15.55
2022-12-11T17:13:46.304Z,14.77
2022-12-11T17:16:17.073Z,9.60
2022-12-11T17:18:47.275Z,15.93
2022-12-11T17:21:18.370Z,11.02
2022-12-11T17:23:47.053Z,11.35
2022-12-11T17:26:16.016Z,15.95
2022-12-11T17:28:44.531Z,16.85
2022-12-11T17:31:15.664Z,17.00
2022-12-11T17:33:45.077Z,12.00
2022-12-11T17:36:17.029Z,12.05
2022-12-11T17:38:45.814Z,13.55
2022-12-11T17:41:20.505Z,11.27
2022-12-11T17:43:49.961Z,14.65
2022-12-11T17:46:19.065Z,20.30
2022-12-11T17:48:47.658Z,13.88
2022-12-11T17:51:22.171Z,14.80
2022-12-11T17:53:50.981Z,18.85
2022-12-11T17:56:19.254Z,12.57
2022-12-11T17:58:47.642Z,51.63
2022-12-11T18:01:16.252Z,13.93
2022-12-11T18:03:44.717Z,15.02
2022-12-11T18:06:17.344Z,29.63
2022-12-11T18:11:16.870Z,10.75
2022-12-11T18:13:46.678Z,11.93
2022-12-11T18:16:18.215Z,12.38
2022-12-11T18:18:47.358Z,18.10
2022-12-11T18:21:19.448Z,65.40
2022-12-11T18:23:47.856Z,11.30
2022-12-11T18:26:17.515Z,12.13
2022-12-11T18:28:47.282Z,77.03
2022-12-11T18:31:16.855Z,16.13
2022-12-11T18:33:46.012Z,46.88
2022-12-11T18:36:17.448Z,52.40
2022-12-11T18:38:47.158Z,25.08
2022-12-11T18:41:17.024Z,21.25
2022-12-11T18:43:45.702Z,15.30
2022-12-11T18:46:17.705Z,14.93
2022-12-11T18:48:47.196Z,13.38
2022-12-11T18:51:18.958Z,13.63
2022-12-11T18:53:47.397Z,10.47
2022-12-11T18:56:18.989Z,9.30
2022-12-11T18:58:48.120Z,8.80
2022-12-11T19:01:20.668Z,9.00
2022-12-11T19:06:21.526Z,12.25
2022-12-11T19:08:49.940Z,11.20
2022-12-11T19:11:19.567Z,6.63
2022-12-11T19:13:48.786Z,14.43
2022-12-11T19:16:18.640Z,10.07
2022-12-11T19:18:47.498Z,12.88
2022-12-11T19:21:17.496Z,16.23
2022-12-11T19:23:48.053Z,21.33
2022-12-11T19:26:18.645Z,17.83
2022-12-11T19:28:47.128Z,12.95
2022-12-11T19:31:18.874Z,19.27
2022-12-11T19:33:47.534Z,25.05
2022-12-11T19:36:18.157Z,20.90
2022-12-11T19:38:48.606Z,18.05
2022-12-11T19:41:20.013Z,17.02
2022-12-11T19:43:48.770Z,23.05
2022-12-11T19:46:18.549Z,28.42
2022-12-11T19:48:49.464Z,17.80
2022-12-11T19:51:21.887Z,15.77
2022-12-11T19:53:51.856Z,17.90
2022-12-11T19:56:20.900Z,24.17
2022-12-11T19:58:49.952Z,19.80
2022-12-11T20:01:25.902Z,14.70
2022-12-11T20:03:55.013Z,14.20
2022-12-11T20:06:23.770Z,12.98
2022-12-11T20:08:53.639Z,13.90
2022-12-11T20:11:22.556Z,12.50
2022-12-11T20:13:52.128Z,15.27
2022-12-11T20:16:39.209Z,9.18
2022-12-11T20:19:09.211Z,14.52
2022-12-11T20:21:38.621Z,14.00
2022-12-11T20:24:09.184Z,14.95
2022-12-11T20:26:38.271Z,14.85
2022-12-11T20:29:08.548Z,13.10
2022-12-11T20:31:37.813Z,26.73
2022-12-11T20:34:07.803Z,14.63
2022-12-11T20:36:36.504Z,10.73
2022-12-11T20:39:06.327Z,20.73
2022-12-11T20:41:36.498Z,11.48
2022-12-11T20:44:04.920Z,16.65
2022-12-11T20:46:34.320Z,20.38
2022-12-11T20:49:02.776Z,22.63
2022-12-11T20:51:32.914Z,22.63
2022-12-11T20:54:01.437Z,138.73
2022-12-11T20:56:31.362Z,118.90
2022-12-11T20:59:02.427Z,70.90
2022-12-11T21:01:33.267Z,282.30
2022-12-11T21:04:02.344Z,141.90
2022-12-11T21:06:33.037Z,96.95
2022-12-11T21:09:03.410Z,143.10
2022-12-11T21:11:31.770Z,125.85
2022-12-11T21:14:01.665Z,47.17
2022-12-11T21:16:30.744Z,80.05
2022-12-11T21:19:00.342Z,104.68
2022-12-11T21:21:28.756Z,71.35
2022-12-11T21:23:57.237Z,73.22
2022-12-11T21:26:25.890Z,63.50
2022-12-11T21:28:54.531Z,183.55
2022-12-11T21:31:24.704Z,50.67
2022-12-11T21:33:53.649Z,86.40
2022-12-11T21:36:22.248Z,47.42
2022-12-11T21:38:51.873Z,138.32
2022-12-11T21:41:23.570Z,53.53
2022-12-11T21:46:43.709Z,17.17
2022-12-11T21:49:12.637Z,27.48
2022-12-11T21:51:47.110Z,95.45
2022-12-11T21:54:18.213Z,32.95
2022-12-11T21:56:47.349Z,24.17
2022-12-11T21:59:16.066Z,57.60
2022-12-11T22:01:47.200Z,18.90
2022-12-11T22:04:16.795Z,38.03
2022-12-11T22:06:47.368Z,24.20
2022-12-11T22:09:17.962Z,14.05
2022-12-11T22:11:47.754Z,11.93
2022-12-11T22:14:18.647Z,19.13
2022-12-11T22:16:49.363Z,15.57
2022-12-11T22:19:18.306Z,12.57
2022-12-11T22:21:46.653Z,14.63
2022-12-11T22:24:15.188Z,11.57
2022-12-11T22:26:43.784Z,14.38
2022-12-11T22:29:12.135Z,12.27
2022-12-11T22:31:40.519Z,12.63
2022-12-11T22:34:10.295Z,9.38
2022-12-11T22:36:39.024Z,13.98
2022-12-11T22:39:07.627Z,15.07
2022-12-11T22:41:41.940Z,14.82
2022-12-11T22:44:16.028Z,11.35
2022-12-11T22:46:49.666Z,11.55
2022-12-11T22:49:20.747Z,7.70
2022-12-11T22:51:50.250Z,10.95
2022-12-11T22:54:18.699Z,10.85
2022-12-11T22:56:47.232Z,9.27
2022-12-11T22:59:15.867Z,10.65
2022-12-11T23:01:44.360Z,9.27
2022-12-11T23:04:12.770Z,15.25
2022-12-11T23:06:47.058Z,24.90
2022-12-11T23:09:19.978Z,33.05
2022-12-11T23:11:48.562Z,23.42
2022-12-11T23:14:18.377Z,9.68
2022-12-11T23:16:46.845Z,13.85
2022-12-11T23:19:18.524Z,12.73
2022-12-11T23:21:50.890Z,17.83
2022-12-11T23:24:19.394Z,17.75
2022-12-11T23:26:48.247Z,13.40
2022-12-11T23:29:16.972Z,16.35
2022-12-11T23:31:45.271Z,12.68
2022-12-11T23:34:13.559Z,12.27
2022-12-11T23:36:41.961Z,17.48
2022-12-11T23:39:11.914Z,11.65
2022-12-11T23:41:40.264Z,11.50
2022-12-11T23:44:08.588Z,13.57
2022-12-11T23:46:37.056Z,10.00
2022-12-11T23:49:07.161Z,14.50
2022-12-11T23:51:37.266Z,18.30
2022-12-11T23:54:05.707Z,16.08
2022-12-11T23:56:35.474Z,10.23
2022-12-11T23:59:04.133Z,10.50
